Time;durP1;ratioP1;P1;durP2;ratioP2;P2;SDS_P1;SDS_P2;PMS_P1;PMS_P2;Temp;Humidity;BMP_temperature;BMP_pressure;BME280_temperature;BME280_humidity;BME280_pressure;Samples;Min_cycle;Max_cycle;Signal;HPM_P1;HPM_P2
2022/08/18 00:01:21;;;;;;;11.68;7.95;;;;;;;22.22;81.81;99183.43;1776936;78;21143;-70
2022/08/18 00:03:48;;;;;;;12.13;8.55;;;;;;;22.23;81.81;99187.75;1810013;77;21057;-71
2022/08/18 00:06:17;;;;;;;14.85;8.18;;;;;;;22.28;81.62;99190.54;1808710;78;21001;-74
2022/08/18 00:08:45;;;;;;;14.00;8.38;;;;;;;22.24;81.56;99186.14;1798869;78;21017;-73
2022/08/18 00:11:11;;;;;;;14.70;8.93;;;;;;;22.18;81.69;99187.19;1776399;79;21093;-73
2022/08/18 00:13:38;;;;;;;11.80;7.42;;;;;;;22.11;81.94;99184.67;1790268;79;21143;-72
2022/08/18 00:16:06;;;;;;;13.22;8.20;;;;;;;22.12;81.87;99187.67;1767188;78;21555;-72
2022/08/18 00:18:32;;;;;;;11.08;7.97;;;;;;;22.12;81.67;99182.27;1854340;75;21083;-71
2022/08/18 00:21:01;;;;;;;10.58;8.53;;;;;;;22.04;81.85;99188.16;1856461;75;21079;-70
2022/08/18 00:23:31;;;;;;;15.70;8.50;;;;;;;21.97;81.93;99184.83;1853972;75;21091;-70
2022/08/18 00:25:56;;;;;;;15.50;7.42;;;;;;;21.96;82.00;99190.78;1853911;75;21466;-71
2022/08/18 00:28:23;;;;;;;14.20;8.23;;;;;;;21.99;82.03;99188.09;1855104;77;21084;-71
2022/08/18 00:30:49;;;;;;;8.20;7.40;;;;;;;21.96;82.07;99189.95;1852035;76;21057;-71
2022/08/18 00:33:15;;;;;;;12.63;8.33;;;;;;;21.89;82.12;99188.81;1853306;75;21036;-72
2022/08/18 00:35:42;;;;;;;12.20;8.05;;;;;;;21.84;82.36;99190.66;1849268;75;21037;-72
2022/08/18 00:38:09;;;;;;;14.20;6.92;;;;;;;21.84;82.26;99183.34;1848753;75;21189;-71
2022/08/18 00:40:47;;;;;;;10.48;7.50;;;;;;;21.88;82.26;99185.81;1842571;76;21013;-71
2022/08/18 00:43:19;;;;;;;14.63;7.47;;;;;;;21.83;82.37;99188.49;1849022;75;21033;-71
2022/08/18 00:45:46;;;;;;;13.03;8.53;;;;;;;21.75;82.41;99188.93;1830307;75;21023;-72
2022/08/18 00:48:13;;;;;;;8.13;7.28;;;;;;;21.66;82.55;99187.23;1852509;75;21473;-73
2022/08/18 00:50:59;;;;;;;14.43;7.25;;;;;;;21.66;82.60;99185.08;1845002;77;21135;-73
2022/08/18 00:53:32;;;;;;;11.22;7.47;;;;;;;21.69;82.54;99186.73;1849594;75;21477;-71
2022/08/18 00:56:07;;;;;;;9.68;7.35;;;;;;;21.64;82.72;99183.97;1845794;76;21065;-73
2022/08/18 00:58:47;;;;;;;16.15;8.15;;;;;;;21.56;82.90;99179.03;1853829;77;21006;-72
2022/08/18 01:01:15;;;;;;;9.08;7.12;;;;;;;21.52;82.99;99186.02;1851750;75;21540;-72
2022/08/18 01:03:41;;;;;;;13.80;7.67;;;;;;;21.56;82.93;99184.44;1763467;78;21207;-72
2022/08/18 01:06:36;;;;;;;14.03;7.25;;;;;;;21.57;82.74;99180.64;1844429;75;21017;-73
2022/08/18 01:09:03;;;;;;;10.10;7.33;;;;;;;21.50;82.84;99176.80;1856091;77;21033;-74
2022/08/18 01:11:30;;;;;;;12.65;8.00;;;;;;;21.41;82.94;99172.34;1853501;75;20978;-71
2022/08/18 01:13:57;;;;;;;14.18;7.90;;;;;;;21.43;82.93;99173.98;1827568;75;21527;-70
2022/08/18 01:21:58;;;;;;;12.37;7.67;;;;;;;21.38;82.95;99191.77;1814384;77;21473;-69
2022/08/18 01:27:17;;;;;;;12.37;7.37;;;;;;;21.32;83.17;99194.11;1826874;77;21039;-71
2022/08/18 01:29:48;;;;;;;11.70;7.80;;;;;;;21.32;83.06;99190.05;1833905;77;21132;-72
2022/08/18 01:32:19;;;;;;;10.95;7.08;;;;;;;21.24;83.32;99187.80;1831991;78;21031;-73
2022/08/18 01:34:47;;;;;;;12.50;6.83;;;;;;;21.17;83.50;99194.76;1846779;77;21006;-74
2022/08/18 01:37:17;;;;;;;9.78;7.10;;;;;;;21.15;83.45;99185.25;1776870;80;21056;-71
2022/08/18 01:39:43;;;;;;;13.40;7.35;;;;;;;21.18;83.41;99188.27;1773699;80;21005;-70
2022/08/18 01:42:12;;;;;;;12.30;7.00;;;;;;;21.11;83.56;99185.47;1830263;77;21143;-72
2022/08/18 01:44:40;;;;;;;12.47;6.50;;;;;;;21.05;83.82;99185.13;1829713;77;21095;-72
2022/08/18 01:47:09;;;;;;;14.58;8.23;;;;;;;21.02;83.93;99186.46;1827126;77;21029;-71
2022/08/18 01:49:38;;;;;;;12.33;7.40;;;;;;;21.04;83.92;99188.38;1824822;77;21054;-71
2022/08/18 01:52:06;;;;;;;11.90;7.85;;;;;;;20.98;83.99;99192.89;1831229;77;21112;-71
2022/08/18 01:54:33;;;;;;;9.70;6.60;;;;;;;20.90;84.17;99194.67;1825584;77;21948;-73
2022/08/18 01:56:59;;;;;;;10.65;7.03;;;;;;;20.88;84.22;99191.92;1831214;77;21470;-73
2022/08/18 01:59:26;;;;;;;12.05;7.53;;;;;;;20.92;84.24;99196.59;1808518;77;21006;-72
2022/08/18 02:01:54;;;;;;;15.08;8.45;;;;;;;20.89;84.17;99196.27;1835987;77;20982;-71
2022/08/18 02:04:24;;;;;;;11.55;7.12;;;;;;;20.85;84.24;99195.14;1824321;78;21033;-71
2022/08/18 02:06:50;;;;;;;11.83;7.70;;;;;;;20.83;84.35;99198.08;1829382;77;21091;-72
2022/08/18 02:09:17;;;;;;;12.20;6.85;;;;;;;20.88;84.27;99195.97;1772198;79;21025;-71
2022/08/18 02:11:43;;;;;;;12.80;7.47;;;;;;;20.84;84.21;99199.70;1785855;78;21041;-71
2022/08/18 02:14:10;;;;;;;12.28;7.60;;;;;;;20.78;84.28;99198.84;1775291;78;21117;-72
2022/08/18 02:16:37;;;;;;;9.35;6.90;;;;;;;20.74;84.39;99204.42;1800761;77;21026;-70
2022/08/18 02:19:04;;;;;;;13.08;7.03;;;;;;;20.78;84.10;99196.64;1782095;80;21629;-71
2022/08/18 02:21:30;;;;;;;7.95;6.78;;;;;;;20.78;84.11;99200.70;1786503;78;21092;-72
2022/08/18 02:23:56;;;;;;;11.48;7.83;;;;;;;20.73;84.15;99193.36;1786398;80;21509;-72
2022/08/18 02:26:23;;;;;;;12.25;7.58;;;;;;;20.70;84.25;99197.08;1796562;79;21071;-72
2022/08/18 02:28:50;;;;;;;12.60;7.28;;;;;;;20.72;84.09;99191.70;1769165;79;20995;-71
2022/08/18 02:31:19;;;;;;;13.70;7.42;;;;;;;20.77;83.76;99195.03;1797808;79;21236;-72
2022/08/18 02:33:45;;;;;;;14.33;8.48;;;;;;;20.71;83.77;99193.33;1789296;79;21067;-69
2022/08/18 02:36:12;;;;;;;8.05;7.00;;;;;;;20.65;84.04;99194.30;1791145;79;20993;-74
2022/08/18 02:38:39;;;;;;;11.95;7.62;;;;;;;20.59;84.10;99192.89;1804313;79;21006;-71
2022/08/18 02:41:09;;;;;;;14.73;7.17;;;;;;;20.62;84.02;99192.37;1814487;79;21469;-73
2022/08/18 02:43:36;;;;;;;11.28;8.63;;;;;;;20.66;83.82;99190.00;1792794;77;21069;-73
2022/08/18 02:46:04;;;;;;;11.03;7.95;;;;;;;20.63;83.85;99197.27;1801415;77;22460;-71
2022/08/18 02:48:34;;;;;;;12.40;6.65;;;;;;;20.58;83.82;99196.61;1796533;79;21076;-71
2022/08/18 02:51:12;;;;;;;14.30;7.42;;;;;;;20.59;83.78;99203.68;1802500;79;21042;-71
2022/08/18 02:53:40;;;;;;;11.70;7.40;;;;;;;20.63;83.53;99205.36;1789148;79;21088;-72
2022/08/18 02:56:28;;;;;;;12.40;7.40;;;;;;;20.57;83.55;99208.98;1790114;79;21128;-73
2022/08/18 02:59:01;;;;;;;10.80;7.42;;;;;;;20.50;83.72;99209.71;1790045;79;20993;-72
2022/08/18 03:01:31;;;;;;;11.28;7.15;;;;;;;20.51;83.79;99208.63;1802160;79;21016;-70
2022/08/18 03:03:58;;;;;;;10.55;7.25;;;;;;;20.54;83.55;99213.00;1792088;79;21057;-71
2022/08/18 03:06:25;;;;;;;12.98;7.75;;;;;;;20.45;83.77;99209.08;1808036;78;21072;-71
2022/08/18 03:08:52;;;;;;;13.85;6.53;;;;;;;20.40;83.84;99205.78;1787698;79;21228;-70
2022/08/18 03:11:22;;;;;;;12.33;7.25;;;;;;;20.41;83.80;99203.36;1805921;79;21520;-72
2022/08/18 03:13:49;;;;;;;13.93;7.67;;;;;;;20.47;83.58;99205.60;1784456;79;21519;-70
2022/08/18 03:16:16;;;;;;;12.43;7.78;;;;;;;20.43;83.56;99209.86;1788903;78;21085;-71
2022/08/18 03:18:43;;;;;;;9.40;7.60;;;;;;;20.38;83.71;99213.84;1837656;77;22366;-69
2022/08/18 03:21:13;;;;;;;10.80;7.03;;;;;;;20.33;83.79;99220.50;1845306;77;21271;-71
2022/08/18 03:23:40;;;;;;;13.60;7.90;;;;;;;20.35;83.88;99217.83;1836737;76;21002;-72
2022/08/18 03:26:11;;;;;;;10.88;7.12;;;;;;;20.39;83.79;99213.58;1842233;76;21010;-72
2022/08/18 03:28:39;;;;;;;14.65;8.40;;;;;;;20.38;83.95;99224.64;1842407;76;21036;-74
2022/08/18 03:31:07;;;;;;;9.78;6.75;;;;;;;20.36;83.79;99230.27;1838448;77;21077;-73
2022/08/18 03:33:34;;;;;;;11.50;7.30;;;;;;;20.40;83.66;99227.36;1848125;77;22093;-73
2022/08/18 03:36:10;;;;;;;10.43;6.90;;;;;;;20.45;83.38;99225.27;1840263;76;21271;-74
2022/08/18 03:38:42;;;;;;;8.48;7.45;;;;;;;20.40;83.35;99226.02;1821372;76;21048;-72
2022/08/18 03:41:10;;;;;;;10.95;7.80;;;;;;;20.36;83.48;99230.27;1836771;76;21049;-73
2022/08/18 03:43:36;;;;;;;14.85;7.70;;;;;;;20.38;83.37;99226.80;1847117;77;21056;-74
2022/08/18 03:46:10;;;;;;;18.17;8.10;;;;;;;20.46;83.29;99231.50;1839190;76;21123;-73
2022/08/18 03:48:39;;;;;;;11.38;7.72;;;;;;;20.46;83.17;99236.90;1846495;76;21002;-75
2022/08/18 03:51:11;;;;;;;10.23;7.78;;;;;;;20.41;83.20;99237.61;1844719;77;21045;-71
2022/08/18 03:53:37;;;;;;;11.83;6.83;;;;;;;20.37;83.16;99229.19;1837332;76;21042;-73
2022/08/18 03:56:14;;;;;;;10.30;7.08;;;;;;;20.45;83.10;99231.20;1766602;79;21093;-72
2022/08/18 03:58:37;;;;;;;10.53;7.50;;;;;;;20.55;82.85;99233.55;1843072;77;21173;-74
2022/08/18 04:01:04;;;;;;;10.08;7.78;;;;;;;20.55;82.69;99233.55;1842452;76;21062;-72
2022/08/18 04:03:31;;;;;;;11.63;8.48;;;;;;;20.56;82.56;99231.66;1841743;76;21068;-73
2022/08/18 04:05:58;;;;;;;11.68;7.20;;;;;;;20.59;82.44;99234.72;1827060;77;21088;-72
2022/08/18 04:08:25;;;;;;;9.00;6.85;;;;;;;20.71;82.10;99237.32;1775335;80;21033;-70
2022/08/18 04:10:53;;;;;;;14.83;7.10;;;;;;;20.83;81.75;99234.52;1762001;79;21813;-71
2022/08/18 04:13:19;;;;;;;10.00;7.87;;;;;;;20.90;81.40;99230.28;1766234;79;21093;-71
2022/08/18 04:15:47;;;;;;;11.35;7.97;;;;;;;20.95;80.89;99233.88;1777644;78;21006;-74
2022/08/18 04:18:13;;;;;;;12.50;7.55;;;;;;;20.98;80.54;99229.88;1771881;79;21018;-73
2022/08/18 04:20:40;;;;;;;13.85;7.37;;;;;;;21.05;80.20;99226.98;1774483;79;20982;-72
2022/08/18 04:23:06;;;;;;;9.75;6.87;;;;;;;21.15;79.57;99232.01;1805481;77;21070;-72
2022/08/18 04:25:33;;;;;;;8.95;7.10;;;;;;;21.15;79.33;99232.01;1843529;76;21077;-71
2022/08/18 04:28:01;;;;;;;10.53;7.83;;;;;;;21.14;79.08;99226.84;1841225;77;20983;-71
2022/08/18 04:30:27;;;;;;;12.20;7.08;;;;;;;21.18;79.24;99230.68;1836134;77;20971;-72
2022/08/18 04:32:54;;;;;;;11.50;6.90;;;;;;;21.35;78.67;99227.39;1835118;76;21037;-72
2022/08/18 04:35:22;;;;;;;11.48;7.58;;;;;;;21.53;77.95;99232.22;1782737;79;21124;-72
2022/08/18 04:37:48;;;;;;;10.72;7.45;;;;;;;21.57;77.59;99232.80;1777000;79;21041;-71
2022/08/18 04:40:15;;;;;;;11.45;7.33;;;;;;;21.56;77.31;99242.53;1757094;79;21022;-73
2022/08/18 04:42:42;;;;;;;10.75;7.70;;;;;;;21.55;77.14;99247.10;1783444;79;21010;-74
2022/08/18 04:45:09;;;;;;;14.15;7.15;;;;;;;21.51;76.82;99248.68;1757875;79;21941;-73
2022/08/18 04:47:40;;;;;;;9.48;6.90;;;;;;;21.57;76.38;99245.50;1775385;79;21293;-72
2022/08/18 04:50:08;;;;;;;9.05;7.28;;;;;;;21.66;76.18;99248.05;1767483;79;20989;-71
2022/08/18 04:55:21;;;;;;;11.88;7.30;;;;;;;21.74;75.84;99250.30;1844379;76;21080;-72
2022/08/18 04:57:47;;;;;;;7.65;6.75;;;;;;;21.72;75.73;99257.84;1847285;76;20985;-73
2022/08/18 05:00:18;;;;;;;10.75;6.67;;;;;;;21.68;75.40;99254.56;1840266;76;21527;-74
2022/08/18 05:02:44;;;;;;;10.40;7.05;;;;;;;21.70;75.25;99261.34;1842257;76;21469;-73
2022/08/18 05:05:10;;;;;;;10.08;6.60;;;;;;;21.73;74.81;99255.44;1842372;76;21447;-73
2022/08/18 05:07:38;;;;;;;11.28;6.78;;;;;;;21.74;74.68;99255.70;1823622;77;21380;-73
2022/08/18 05:10:05;;;;;;;8.08;6.65;;;;;;;21.71;74.65;99254.87;1806166;77;21066;-71
2022/08/18 05:12:32;;;;;;;7.80;6.65;;;;;;;21.71;74.59;99251.33;1836584;76;21124;-73
2022/08/18 05:14:59;;;;;;;11.55;7.53;;;;;;;21.72;74.81;99255.14;1819853;77;21029;-72
2022/08/18 05:17:27;;;;;;;9.03;7.03;;;;;;;21.76;74.31;99254.11;1845384;77;21005;-73
2022/08/18 05:19:54;;;;;;;11.68;6.97;;;;;;;21.80;73.75;99256.58;1790896;78;21018;-74
2022/08/18 05:22:20;;;;;;;10.30;6.10;;;;;;;21.88;73.80;99253.41;1772081;80;21057;-73
2022/08/18 05:24:47;;;;;;;9.80;6.47;;;;;;;21.89;73.28;99252.91;1792875;79;21101;-74
2022/08/18 05:27:13;;;;;;;9.88;6.62;;;;;;;21.88;73.08;99252.06;1767828;79;21031;-74
2022/08/18 05:29:40;;;;;;;9.90;6.58;;;;;;;21.90;73.16;99245.86;1777252;80;21057;-72
2022/08/18 05:32:07;;;;;;;8.63;7.28;;;;;;;21.91;73.14;99245.35;1780094;80;21034;-73
2022/08/18 05:34:34;;;;;;;9.85;6.83;;;;;;;21.91;72.96;99250.76;1769491;79;21046;-72
2022/08/18 05:37:09;;;;;;;10.13;6.33;;;;;;;21.89;72.78;99252.36;1778676;80;21143;-75
2022/08/18 05:39:53;;;;;;;11.55;6.20;;;;;;;21.97;72.83;99251.09;1770934;79;21010;-75
2022/08/18 05:42:20;;;;;;;7.22;5.83;;;;;;;22.06;72.62;99260.38;1790589;78;21518;-74
2022/08/18 05:44:49;;;;;;;9.58;5.95;;;;;;;22.10;72.45;99253.93;1767228;78;21073;-75
2022/08/18 05:47:25;;;;;;;10.32;7.47;;;;;;;22.14;72.23;99249.09;1753354;79;21042;-75
2022/08/18 05:49:51;;;;;;;9.03;7.03;;;;;;;22.22;72.20;99251.06;1769378;78;21252;-73
2022/08/18 05:52:41;;;;;;;9.20;6.80;;;;;;;22.28;71.78;99250.87;1761978;80;21043;-74
2022/08/18 05:58:05;;;;;;;10.80;6.80;;;;;;;22.38;71.48;99248.78;1779466;80;20994;-73
2022/08/18 06:00:32;;;;;;;12.70;6.92;;;;;;;22.43;71.36;99256.15;1803439;77;21038;-74
2022/08/18 06:03:07;;;;;;;9.70;6.92;;;;;;;22.47;71.19;99255.36;1844561;76;21303;-74
2022/08/18 06:05:39;;;;;;;10.93;6.25;;;;;;;22.56;70.88;99251.63;1842590;76;21475;-72
2022/08/18 06:08:12;;;;;;;8.35;6.92;;;;;;;22.67;70.57;99254.70;1848786;76;21026;-74
2022/08/18 06:10:42;;;;;;;9.55;6.75;;;;;;;22.70;70.41;99255.55;1833561;77;21046;-73
2022/08/18 06:13:10;;;;;;;9.43;7.87;;;;;;;22.74;70.18;99260.71;1825357;77;21097;-72
2022/08/18 06:16:00;;;;;;;8.30;6.35;;;;;;;22.77;70.07;99264.78;1839108;76;21145;-75
2022/08/18 06:19:09;;;;;;;14.90;8.93;;;;;;;22.80;70.04;99262.92;1829368;76;21053;-75
2022/08/18 06:21:56;;;;;;;8.80;7.30;;;;;;;22.85;70.13;99273.80;1839243;76;21010;-75
2022/08/18 06:24:41;;;;;;;15.05;7.33;;;;;;;22.91;70.08;99271.94;1821701;76;21073;-74
2022/08/18 06:27:40;;;;;;;8.73;6.60;;;;;;;22.99;69.87;99274.70;1837591;76;21491;-76
2022/08/18 06:30:18;;;;;;;9.45;6.85;;;;;;;23.06;69.78;99270.69;1840286;76;21227;-76
2022/08/18 06:33:41;;;;;;;8.53;7.40;;;;;;;23.14;69.65;99270.22;1838134;77;21052;-73
2022/08/18 06:36:40;;;;;;;13.50;6.75;;;;;;;23.20;69.63;99278.35;1845758;76;20975;-73
2022/08/18 06:39:21;;;;;;;10.85;7.40;;;;;;;23.24;69.51;99275.42;1826748;77;21065;-74
2022/08/18 06:41:49;;;;;;;12.15;6.97;;;;;;;23.28;69.47;99277.33;1821393;77;21673;-75
2022/08/18 06:44:38;;;;;;;8.75;6.62;;;;;;;23.33;69.13;99273.81;1845565;76;21832;-75
2022/08/18 06:47:33;;;;;;;11.18;7.45;;;;;;;23.39;69.03;99271.95;1837667;77;21545;-74
2022/08/18 06:50:35;;;;;;;15.53;7.97;;;;;;;23.43;69.04;99268.98;1846495;76;21025;-76
2022/08/18 06:53:04;;;;;;;13.40;7.95;;;;;;;23.49;68.94;99266.59;1817808;77;21115;-73
2022/08/18 06:55:38;;;;;;;8.95;7.55;;;;;;;23.52;68.66;99268.77;1833730;77;21557;-73
2022/08/18 06:58:18;;;;;;;12.53;7.45;;;;;;;23.52;68.95;99273.63;1847870;77;21122;-75
2022/08/18 07:00:53;;;;;;;14.75;7.37;;;;;;;23.61;68.86;99275.86;1839146;76;21038;-72
2022/08/18 07:03:24;;;;;;;11.48;7.08;;;;;;;23.67;68.71;99274.24;1837088;77;21057;-74
2022/08/18 07:06:07;;;;;;;12.10;7.60;;;;;;;23.77;68.34;99271.30;1809089;77;21047;-73
2022/08/18 07:08:41;;;;;;;8.33;6.47;;;;;;;23.86;67.73;99271.09;1834026;77;21104;-75
2022/08/18 07:11:28;;;;;;;8.33;6.80;;;;;;;23.93;67.38;99267.56;1825044;77;21235;-76
2022/08/18 07:14:00;;;;;;;17.80;7.45;;;;;;;24.02;67.25;99264.60;1821494;76;21017;-76
2022/08/18 07:16:33;;;;;;;12.95;6.25;;;;;;;24.12;66.47;99265.16;1815552;77;21010;-75
2022/08/18 07:19:10;;;;;;;10.28;6.40;;;;;;;24.23;65.89;99263.29;1820212;78;21050;-76
2022/08/18 07:21:39;;;;;;;11.03;6.58;;;;;;;24.31;65.61;99262.75;1816115;77;21293;-75
2022/08/18 07:24:26;;;;;;;12.13;7.08;;;;;;;24.37;65.76;99273.88;1817682;78;21806;-77
2022/08/18 07:27:02;;;;;;;8.35;6.50;;;;;;;24.45;65.66;99280.67;1818249;77;21014;-73
2022/08/18 07:29:32;;;;;;;13.20;7.08;;;;;;;24.52;65.46;99279.34;1820890;77;21037;-74
2022/08/18 07:32:04;;;;;;;7.45;6.15;;;;;;;24.60;65.08;99279.89;1811844;77;21109;-75
2022/08/18 07:34:40;;;;;;;11.03;7.12;;;;;;;24.65;64.81;99281.27;1819365;77;21069;-74
2022/08/18 07:37:12;;;;;;;10.50;6.78;;;;;;;24.72;64.75;99270.39;1805693;77;21080;-73
2022/08/18 07:39:48;;;;;;;13.55;6.62;;;;;;;24.78;64.46;99273.89;1809856;77;21595;-74
2022/08/18 07:42:36;;;;;;;16.05;7.22;;;;;;;24.84;64.49;99268.75;1810776;77;21092;-72
2022/08/18 07:45:32;;;;;;;10.82;6.45;;;;;;;24.92;64.45;99270.91;1819850;77;21022;-75
2022/08/18 07:48:16;;;;;;;11.28;6.70;;;;;;;25.04;64.16;99273.88;1770010;79;21339;-76
2022/08/18 07:51:06;;;;;;;6.55;5.65;;;;;;;25.14;63.47;99278.47;1803122;77;21242;-75
2022/08/18 07:53:50;;;;;;;11.40;6.30;;;;;;;25.18;63.21;99272.20;1754927;78;21031;-75
2022/08/18 07:56:41;;;;;;;9.23;6.95;;;;;;;25.26;62.97;99270.30;1821293;77;20999;-75
2022/08/18 07:59:34;;;;;;;10.50;6.45;;;;;;;25.34;62.71;99272.98;1817981;77;21632;-74
2022/08/18 08:02:23;;;;;;;8.75;5.95;;;;;;;25.40;62.51;99275.14;1814773;77;26652;-73
2022/08/18 08:05:04;;;;;;;9.08;5.97;;;;;;;25.45;62.17;99279.22;1813276;77;21505;-75
2022/08/18 08:07:54;;;;;;;12.40;6.70;;;;;;;25.50;62.10;99279.20;1811099;77;21030;-75
2022/08/18 08:10:41;;;;;;;9.18;6.22;;;;;;;25.57;62.33;99277.53;1815805;77;21022;-73
2022/08/18 08:13:20;;;;;;;11.60;6.28;;;;;;;25.67;62.40;99266.08;1780044;77;21055;-74
2022/08/18 08:15:56;;;;;;;9.48;5.90;;;;;;;25.80;61.39;99269.27;1828647;76;21484;-77
2022/08/18 08:18:58;;;;;;;11.20;5.83;;;;;;;25.86;60.46;99263.53;1836155;77;21603;-76
2022/08/18 08:21:26;;;;;;;13.40;6.17;;;;;;;25.90;60.15;99261.04;1835613;76;21060;-76
2022/08/18 08:24:19;;;;;;;9.50;6.37;;;;;;;25.96;60.39;99264.58;1801645;79;21030;-74
2022/08/18 08:27:06;;;;;;;16.52;6.45;;;;;;;26.01;60.80;99267.28;1794573;79;21096;-76
2022/08/18 08:29:47;;;;;;;13.10;6.62;;;;;;;26.13;61.12;99266.38;1711037;80;21042;-75
2022/08/18 08:32:33;;;;;;;7.42;6.05;;;;;;;26.28;61.16;99262.18;1783542;79;21135;-75
2022/08/18 08:35:08;;;;;;;10.40;6.40;;;;;;;26.41;59.99;99263.45;1788562;79;21025;-74
2022/08/18 08:37:43;;;;;;;8.48;6.35;;;;;;;26.47;59.72;99268.31;1757244;79;21054;-74
2022/08/18 08:40:33;;;;;;;16.77;6.20;;;;;;;26.58;59.60;99269.86;1800615;78;20983;-76
2022/08/18 08:43:06;;;;;;;6.72;5.35;;;;;;;26.72;59.02;99274.12;1787851;79;21070;-75
2022/08/18 08:46:02;;;;;;;10.75;7.03;;;;;;;26.83;58.63;99283.83;1760782;80;22100;-75
2022/08/18 08:48:32;;;;;;;10.13;5.75;;;;;;;26.90;58.36;99273.95;1798240;79;21037;-73
2022/08/18 08:51:20;;;;;;;6.58;5.78;;;;;;;27.00;58.18;99274.39;1768380;80;21069;-74
2022/08/18 08:54:04;;;;;;;10.08;6.28;;;;;;;27.13;58.17;99277.00;1765948;80;21652;-73
2022/08/18 08:56:39;;;;;;;11.10;6.00;;;;;;;27.29;57.79;99272.21;1768761;79;21073;-74
2022/08/18 08:59:09;;;;;;;8.90;5.85;;;;;;;27.50;57.50;99273.59;1772967;79;21099;-76
2022/08/18 09:01:57;;;;;;;8.55;5.35;;;;;;;27.72;57.17;99285.86;1775464;79;22083;-74
2022/08/18 09:04:55;;;;;;;6.12;5.55;;;;;;;27.93;56.36;99287.27;1812108;77;21560;-73
2022/08/18 09:08:01;;;;;;;11.03;5.37;;;;;;;28.15;55.76;99286.67;1797054;79;21018;-74
2022/08/18 09:10:52;;;;;;;11.33;5.83;;;;;;;28.36;55.58;99282.27;1746142;80;21014;-74
2022/08/18 09:13:40;;;;;;;10.23;6.05;;;;;;;28.54;55.28;99284.73;1775773;78;21155;-75
2022/08/18 09:16:39;;;;;;;10.48;5.67;;;;;;;28.82;54.93;99278.23;1770079;78;21493;-74
2022/08/18 09:19:20;;;;;;;9.83;5.70;;;;;;;29.28;54.36;99267.01;1762125;78;21026;-74
2022/08/18 09:22:20;;;;;;;9.78;5.50;;;;;;;29.90;52.88;99269.32;1776463;79;21092;-75
2022/08/18 09:24:49;;;;;;;9.25;6.10;;;;;;;30.45;52.02;99269.70;1788399;78;21040;-76
2022/08/18 09:27:34;;;;;;;13.28;5.40;;;;;;;30.99;51.07;99265.61;1792395;78;21142;-76
2022/08/18 09:30:01;;;;;;;11.40;5.50;;;;;;;31.46;51.10;99265.16;1850465;75;21061;-73
2022/08/18 09:32:33;;;;;;;8.75;5.75;;;;;;;32.02;49.32;99264.86;1847866;76;20975;-75
2022/08/18 09:35:27;;;;;;;8.13;5.30;;;;;;;32.46;48.75;99268.39;1845158;75;21037;-76
2022/08/18 09:41:30;;;;;;;6.40;4.97;;;;;;;33.46;46.96;99266.32;1842238;76;21170;-79
2022/08/18 09:44:09;;;;;;;10.05;5.15;;;;;;;33.87;45.35;99270.87;1824846;75;21001;-82
2022/08/18 09:46:49;;;;;;;10.05;5.22;;;;;;;34.18;45.45;99264.97;1848801;75;21033;-80
2022/08/18 09:49:29;;;;;;;9.50;5.40;;;;;;;34.58;45.42;99267.19;1853242;76;21049;-82
2022/08/18 09:52:00;;;;;;;12.68;5.90;;;;;;;35.00;44.27;99272.60;1838076;75;21039;-81
2022/08/18 09:54:32;;;;;;;12.98;5.15;;;;;;;35.34;43.50;99258.13;1842582;75;21180;-80
2022/08/18 09:57:18;;;;;;;;;;;;;;;35.65;42.39;99265.01;1843321;77;21013;-80
2022/08/18 09:59:50;;;;;;;8.45;5.70;;;;;;;35.87;40.96;99252.66;1852031;75;20227;-79
2022/08/18 10:02:34;;;;;;;7.92;5.05;;;;;;;35.99;40.87;99254.02;1828651;77;21009;-78
2022/08/18 10:05:21;;;;;;;10.75;5.33;;;;;;;36.27;40.69;99256.59;1839909;77;21453;-79
2022/08/18 10:07:53;;;;;;;10.28;4.90;;;;;;;36.58;39.78;99262.77;1834892;75;21218;-83
2022/08/18 10:10:38;;;;;;;7.87;4.85;;;;;;;36.76;39.37;99267.41;1846700;75;21072;-81
2022/08/18 10:13:29;;;;;;;7.70;4.50;;;;;;;36.94;38.88;99258.20;1851252;77;21580;-80
2022/08/18 10:16:21;;;;;;;10.25;4.95;;;;;;;37.04;39.05;99254.09;1844414;75;21096;-79
2022/08/18 10:19:18;;;;;;;7.95;5.17;;;;;;;37.16;38.58;99258.17;1840203;77;21013;-79
2022/08/18 10:22:00;;;;;;;6.00;4.85;;;;;;;37.34;38.60;99250.28;1840593;76;21121;-82
2022/08/18 10:24:52;;;;;;;7.97;4.67;;;;;;;37.61;38.39;99254.68;1829427;76;21061;-77
2022/08/18 10:27:46;;;;;;;9.55;5.40;;;;;;;37.88;37.67;99259.81;1830838;76;26575;-77
2022/08/18 10:32:00;;;;;;;7.15;4.80;;;;;;;38.45;37.00;99256.84;1865911;75;23230;-79
2022/08/18 10:34:44;;;;;;;8.13;4.78;;;;;;;38.64;36.81;99255.23;1799683;77;21012;-80
2022/08/18 10:37:33;;;;;;;8.43;4.90;;;;;;;38.86;36.20;99253.63;1822454;77;21270;-77
2022/08/18 10:40:12;;;;;;;7.42;4.75;;;;;;;39.13;36.08;99255.89;1812039;77;21023;-78
2022/08/18 10:43:08;;;;;;;8.28;5.10;;;;;;;39.42;35.44;99256.33;1754116;78;20972;-77
2022/08/18 10:45:39;;;;;;;5.58;4.72;;;;;;;39.58;35.34;99250.05;1815845;77;21010;-76
2022/08/18 10:48:28;;;;;;;12.23;5.12;;;;;;;39.79;35.37;99251.50;1822108;78;21017;-78
2022/08/18 10:51:12;;;;;;;6.72;4.53;;;;;;;40.06;35.17;99258.66;1803589;78;21111;-77
2022/08/18 10:54:04;;;;;;;5.75;4.78;;;;;;;40.39;34.63;99253.46;1774295;80;21028;-79
2022/08/18 10:56:48;;;;;;;8.50;4.70;;;;;;;40.65;34.64;99255.33;1820907;77;20996;-78
2022/08/18 10:59:38;;;;;;;10.48;4.65;;;;;;;40.86;33.90;99257.54;1815793;78;21040;-77
2022/08/18 11:02:14;;;;;;;8.80;4.85;;;;;;;40.93;34.23;99257.58;1822813;78;20998;-77
2022/08/18 11:04:46;;;;;;;10.03;4.92;;;;;;;41.23;33.81;99256.06;1759990;80;21176;-78
2022/08/18 11:07:18;;;;;;;8.10;5.20;;;;;;;41.67;32.45;99250.20;1825498;77;20978;-78
2022/08/18 11:09:49;;;;;;;7.97;5.17;;;;;;;41.67;32.45;99250.20;1751309;80;21561;-77
2022/08/18 11:12:38;;;;;;;9.40;4.80;;;;;;;41.63;32.64;99264.72;1815953;77;21020;-77
2022/08/18 11:15:15;;;;;;;8.45;4.72;;;;;;;41.63;32.47;99264.11;1818671;77;21000;-80
2022/08/18 11:17:57;;;;;;;8.38;4.85;;;;;;;41.79;32.43;99263.00;1822341;78;21115;-79
2022/08/18 11:20:25;;;;;;;8.90;5.40;;;;;;;42.00;32.62;99251.93;1812257;77;21041;-77
2022/08/18 11:22:55;;;;;;;9.40;5.25;;;;;;;42.18;32.28;99247.83;1823778;77;21033;-77
2022/08/18 11:25:30;;;;;;;7.05;4.65;;;;;;;42.33;31.84;99252.06;1819674;77;21061;-79
2022/08/18 11:27:57;;;;;;;9.50;5.33;;;;;;;42.45;31.76;99250.89;1821982;77;21083;-79
2022/08/18 11:30:32;;;;;;;6.65;4.83;;;;;;;42.64;32.13;99239.37;1814603;78;21281;-79
2022/08/18 11:32:59;;;;;;;13.98;5.67;;;;;;;42.93;31.53;99241.61;1810374;79;20994;-78
2022/08/18 11:35:34;;;;;;;8.00;4.70;;;;;;;43.14;31.43;99240.01;1797131;79;20974;-79
2022/08/18 11:38:02;;;;;;;6.53;5.03;;;;;;;43.38;30.86;99240.57;1812155;77;21045;-79
2022/08/18 11:40:43;;;;;;;6.80;4.50;;;;;;;43.51;30.73;99240.16;1811241;79;21564;-76
2022/08/18 11:43:31;;;;;;;6.22;4.75;;;;;;;43.63;30.65;99235.52;1808116;77;22300;-78
2022/08/18 11:46:14;;;;;;;8.35;4.90;;;;;;;43.74;30.28;99234.13;1810400;78;21492;-80
2022/08/18 11:48:44;;;;;;;7.47;4.67;;;;;;;43.80;30.17;99242.28;1787298;79;21061;-80
2022/08/18 11:51:30;;;;;;;8.60;5.60;;;;;;;43.70;30.17;99238.33;1806117;79;21286;-80
2022/08/18 11:54:21;;;;;;;8.73;5.20;;;;;;;43.72;30.19;99228.14;1809824;77;21038;-79
2022/08/18 11:56:48;;;;;;;8.05;4.70;;;;;;;43.85;30.33;99234.88;1801983;77;21372;-78
2022/08/18 11:59:34;;;;;;;5.83;5.03;;;;;;;43.93;30.25;99232.23;1809136;79;20997;-78
2022/08/18 12:02:01;;;;;;;7.03;4.75;;;;;;;44.01;29.94;99236.41;1791242;79;21020;-79
2022/08/18 12:04:38;;;;;;;5.92;4.72;;;;;;;43.91;29.99;99229.05;1807347;77;21050;-79
2022/08/18 12:07:09;;;;;;;5.20;4.70;;;;;;;44.03;29.86;99224.99;1812754;77;20994;-79
2022/08/18 12:09:44;;;;;;;9.07;4.57;;;;;;;44.40;29.71;99222.20;1811194;77;21363;-79
2022/08/18 12:12:32;;;;;;;5.12;4.60;;;;;;;44.81;29.38;99217.30;1811011;79;20988;-80
2022/08/18 12:15:25;;;;;;;6.53;4.72;;;;;;;44.84;28.93;99219.90;1811987;79;20997;-79
2022/08/18 12:17:52;;;;;;;5.25;4.40;;;;;;;44.72;29.25;99223.39;1814088;77;21010;-81
2022/08/18 12:20:18;;;;;;;6.65;4.97;;;;;;;44.77;29.57;99230.55;1763526;79;21060;-78
2022/08/18 12:22:45;;;;;;;6.47;4.83;;;;;;;44.87;29.15;99224.66;1721400;81;22568;-77
2022/08/18 12:25:14;;;;;;;12.47;5.35;;;;;;;44.84;29.11;99230.50;1758256;79;21497;-79